New Hamburg, Canada
Current Conditions -  °F | °C
As of 9:51 AM on Sunday 23 Nov 2014 (Local Time) from CYKF Reporting Station
Light Rain Light Rain  
Wind Chill: 39°   Ceiling: 2000
Heat Index: 43°   Visibility: 5mi
Dew Point: 39°   Wind: 7mph
Humidity: 87%   Direction: 180°S
Pressure: 29.97"   Gusts: NA
Location:  43.38°N, 80.72°W
Report Text: CYKF 231451Z AUTO 18006KT 5SM -RA BR FEW011 OVC020 06/04 A2997 RMK SLP157
Loading
Personal Weather Stations






























Interactive Weather Map New forecast layout! Learn more

10-Day Weather Forecast

Advertisements
Track Severe Weather on mobile